Terminal Aerodrome Forecast
Issued by NWS

Home | Current Version | Previous Version | Text Only | Print | Product List | Glossary On
Versions: 1 2 3 4 5 6 7 8 9 10 11 12 13 14 15 16 17 18 19 20 21 22 23 24 25 26 27 28
253
FTUS42 KCAE 221536 AAB
TAFOGB
TAF AMD
KOGB 221536Z 2216/2312 08007KT P6SM SCT045 BKN250
     FM221800 10008KT P6SM BKN045
     FM230300 10003KT P6SM OVC015
     FM230800 09004KT 4SM BR OVC005=

USA.gov is the U.S. government's official web portal to all federal, state and local government web resources and services.